createdAt,value
2023-03-14T00:02:09.531Z,1.05
2023-03-14T00:04:38.139Z,1.00
2023-03-14T00:07:05.429Z,1.10
2023-03-14T00:09:32.406Z,1.20
2023-03-14T00:11:59.518Z,0.93
2023-03-14T00:14:26.461Z,1.10
2023-03-14T00:16:53.464Z,1.00
2023-03-14T00:19:20.572Z,0.80
2023-03-14T00:21:49.042Z,0.80
2023-03-14T00:24:15.992Z,0.70
2023-03-14T00:26:43.057Z,0.95
2023-03-14T00:29:10.047Z,1.00
2023-03-14T00:31:37.358Z,1.13
2023-03-14T00:34:04.405Z,1.00
2023-03-14T00:36:31.453Z,1.00
2023-03-14T00:38:59.834Z,1.50
2023-03-14T00:41:26.898Z,1.77
2023-03-14T00:43:53.886Z,1.23
2023-03-14T00:46:20.914Z,1.08
2023-03-14T00:48:49.750Z,1.60
2023-03-14T00:51:16.824Z,1.48
2023-03-14T00:53:44.154Z,1.17
2023-03-14T00:56:13.621Z,0.83
2023-03-14T00:58:40.747Z,0.90
2023-03-14T01:01:08.634Z,1.10
2023-03-14T01:03:35.723Z,0.95
2023-03-14T01:06:07.999Z,1.38
2023-03-14T01:08:35.060Z,1.63
2023-03-14T01:11:05.843Z,1.30
2023-03-14T01:13:34.262Z,1.27
2023-03-14T01:16:02.578Z,1.58
2023-03-14T01:18:29.792Z,1.17
2023-03-14T01:20:56.793Z,0.70
2023-03-14T01:23:23.833Z,1.00
2023-03-14T01:25:50.878Z,1.15
2023-03-14T01:28:19.129Z,1.40
2023-03-14T01:30:47.899Z,1.00
2023-03-14T01:33:15.976Z,1.10
2023-03-14T01:35:43.075Z,1.00
2023-03-14T01:38:10.064Z,0.88
2023-03-14T01:40:42.616Z,0.70
2023-03-14T01:43:15.487Z,0.82
2023-03-14T01:46:00.983Z,0.80
2023-03-14T01:48:32.427Z,0.70
2023-03-14T01:51:00.727Z,0.50
2023-03-14T01:53:28.520Z,0.80
2023-03-14T01:55:57.550Z,0.52
2023-03-14T01:58:26.448Z,0.60
2023-03-14T02:00:53.729Z,0.65
2023-03-14T02:03:22.845Z,0.88
2023-03-14T02:05:52.275Z,0.90
2023-03-14T02:08:20.532Z,1.05
2023-03-14T02:10:48.630Z,1.10
2023-03-14T02:13:16.977Z,0.68
2023-03-14T02:15:44.028Z,0.60
2023-03-14T02:18:11.608Z,1.02
2023-03-14T02:20:43.336Z,0.90
2023-03-14T02:23:12.292Z,1.00
2023-03-14T02:25:42.479Z,0.90
2023-03-14T02:28:11.331Z,0.70
2023-03-14T02:30:38.403Z,1.05
2023-03-14T02:33:06.308Z,0.68
2023-03-14T02:35:36.501Z,0.70
2023-03-14T02:38:06.850Z,0.80
2023-03-14T02:40:33.987Z,0.93
2023-03-14T02:43:00.892Z,0.60
2023-03-14T02:45:36.044Z,0.70
2023-03-14T02:48:04.910Z,0.70
2023-03-14T02:50:34.518Z,0.80
2023-03-14T02:53:01.604Z,0.80
2023-03-14T02:55:28.633Z,0.90
2023-03-14T02:57:55.645Z,0.90
2023-03-14T03:00:24.322Z,0.90
2023-03-14T03:02:52.822Z,0.88
2023-03-14T03:05:19.903Z,0.68
2023-03-14T03:07:47.030Z,0.65
2023-03-14T03:10:14.425Z,0.85
2023-03-14T03:12:41.495Z,0.83
2023-03-14T03:15:09.032Z,0.80
2023-03-14T03:17:36.365Z,0.73
2023-03-14T03:20:06.643Z,1.00
2023-03-14T03:22:34.005Z,1.02
2023-03-14T03:25:01.069Z,0.80
2023-03-14T03:27:28.003Z,0.65
2023-03-14T03:29:55.011Z,0.80
2023-03-14T03:32:22.169Z,0.98
2023-03-14T03:34:49.193Z,0.80
2023-03-14T03:37:17.660Z,1.03
2023-03-14T03:39:46.370Z,0.73
2023-03-14T03:42:13.339Z,0.60
2023-03-14T03:44:40.294Z,0.73
2023-03-14T03:47:07.206Z,0.70
2023-03-14T03:49:35.086Z,0.87
2023-03-14T03:52:02.064Z,0.70
2023-03-14T03:54:30.648Z,0.80
2023-03-14T03:56:57.569Z,0.80
2023-03-14T03:59:24.632Z,0.90
2023-03-14T04:01:52.953Z,0.60
2023-03-14T04:04:20.085Z,0.60
2023-03-14T04:06:47.298Z,0.60
2023-03-14T04:09:15.055Z,0.60
2023-03-14T04:11:43.579Z,0.60
2023-03-14T04:14:10.711Z,0.80
2023-03-14T04:16:37.609Z,0.60
2023-03-14T04:19:04.538Z,0.60
2023-03-14T04:21:31.475Z,0.60
2023-03-14T04:23:58.664Z,0.55
2023-03-14T04:26:25.578Z,0.70
2023-03-14T04:28:54.226Z,1.52
2023-03-14T04:31:22.069Z,1.10
2023-03-14T04:33:49.196Z,1.10
2023-03-14T04:36:16.211Z,1.08
2023-03-14T04:38:43.181Z,1.03
2023-03-14T04:41:10.350Z,0.65
2023-03-14T04:43:37.607Z,0.50
2023-03-14T04:46:06.558Z,1.23
2023-03-14T04:48:33.611Z,1.10
2023-03-14T04:51:00.781Z,1.07
2023-03-14T04:53:27.697Z,0.70
2023-03-14T04:55:55.413Z,0.75
2023-03-14T04:58:23.311Z,1.10
2023-03-14T05:00:50.456Z,0.63
2023-03-14T05:03:19.572Z,0.53
2023-03-14T05:05:47.005Z,0.73
2023-03-14T05:08:14.153Z,0.70
2023-03-14T05:10:41.054Z,0.60
2023-03-14T05:13:08.047Z,0.77
2023-03-14T05:15:35.039Z,0.70
2023-03-14T05:18:01.967Z,0.65
2023-03-14T05:20:31.549Z,0.77
2023-03-14T05:22:58.640Z,0.88
2023-03-14T05:25:25.544Z,0.70
2023-03-14T05:27:54.433Z,0.70
2023-03-14T05:30:21.348Z,0.98
2023-03-14T05:32:48.439Z,1.40
2023-03-14T05:35:15.506Z,0.60
2023-03-14T05:37:44.124Z,1.27
2023-03-14T05:40:13.432Z,1.00
2023-03-14T05:42:40.999Z,0.70
2023-03-14T05:45:08.455Z,0.60
2023-03-14T05:47:35.416Z,0.60
2023-03-14T05:50:02.404Z,0.60
2023-03-14T05:52:29.420Z,0.63
2023-03-14T05:54:57.861Z,0.73
2023-03-14T05:57:24.763Z,0.63
2023-03-14T05:59:57.679Z,0.80
2023-03-14T06:02:24.785Z,2.30
2023-03-14T06:04:51.903Z,1.27
2023-03-14T06:07:18.902Z,0.77
2023-03-14T06:09:46.611Z,0.82
2023-03-14T06:12:14.993Z,0.80
2023-03-14T06:15:28.672Z,0.98
2023-03-14T06:17:55.260Z,2.00
2023-03-14T06:20:22.636Z,1.23
2023-03-14T06:22:49.859Z,1.45
2023-03-14T06:25:17.045Z,1.02
2023-03-14T06:27:45.537Z,0.90
2023-03-14T06:30:13.806Z,1.30
2023-03-14T06:32:42.346Z,1.08
2023-03-14T06:35:09.763Z,0.70
2023-03-14T06:37:36.691Z,0.77
2023-03-14T06:40:06.357Z,0.95
2023-03-14T06:42:34.185Z,1.10
2023-03-14T06:45:02.782Z,0.80
2023-03-14T06:47:31.430Z,0.80
2023-03-14T06:49:58.824Z,1.63
2023-03-14T06:52:34.162Z,2.08
2023-03-14T06:55:02.627Z,3.23
2023-03-14T06:57:29.765Z,2.40
2023-03-14T06:59:56.838Z,1.02
2023-03-14T07:02:39.885Z,1.10
2023-03-14T07:05:09.025Z,1.50
2023-03-14T07:07:36.165Z,1.33
2023-03-14T07:10:04.893Z,1.83
2023-03-14T07:12:34.172Z,0.80
2023-03-14T07:15:17.053Z,1.23
2023-03-14T07:17:49.121Z,1.40
2023-03-14T07:20:16.593Z,16.73
2023-03-14T07:22:43.697Z,2.10
2023-03-14T07:25:13.225Z,1.10
2023-03-14T07:27:40.474Z,0.80
2023-03-14T07:30:09.875Z,0.93
2023-03-14T07:32:37.184Z,1.10
2023-03-14T07:35:06.307Z,0.77
2023-03-14T07:37:33.264Z,0.90
2023-03-14T07:40:01.384Z,1.05
2023-03-14T07:42:28.386Z,0.70
2023-03-14T07:44:55.318Z,0.60
2023-03-14T07:47:22.279Z,1.60
2023-03-14T07:49:49.415Z,1.00
2023-03-14T07:52:18.053Z,4.65
2023-03-14T07:54:44.995Z,1.00
2023-03-14T07:57:12.234Z,0.93
2023-03-14T07:59:39.443Z,0.73
2023-03-14T08:02:13.154Z,0.80
2023-03-14T08:04:40.800Z,0.52
2023-03-14T08:07:08.007Z,0.60
2023-03-14T08:09:37.740Z,0.50
2023-03-14T08:12:04.849Z,1.00
2023-03-14T08:14:32.109Z,0.90
2023-03-14T08:16:59.093Z,1.08
2023-03-14T08:19:26.181Z,0.70
2023-03-14T08:21:54.222Z,0.83
2023-03-14T08:24:21.272Z,1.00
2023-03-14T08:26:49.612Z,0.50
2023-03-14T08:29:17.580Z,0.70
2023-03-14T08:31:45.480Z,0.50
2023-03-14T08:34:12.407Z,0.83
2023-03-14T08:36:39.439Z,1.48
2023-03-14T08:39:18.557Z,0.70
2023-03-14T08:41:45.767Z,1.35
2023-03-14T08:44:15.822Z,1.25
2023-03-14T08:46:44.109Z,1.10
2023-03-14T08:49:13.189Z,1.30
2023-03-14T08:51:40.112Z,0.82
2023-03-14T08:54:07.197Z,1.50
2023-03-14T08:56:34.177Z,0.82
2023-03-14T08:59:01.398Z,0.80
2023-03-14T09:01:30.096Z,3.53
2023-03-14T09:03:57.225Z,0.93
2023-03-14T09:06:24.549Z,1.30
2023-03-14T09:08:51.816Z,0.80
2023-03-14T09:11:19.852Z,0.90
2023-03-14T09:13:46.995Z,1.00
2023-03-14T09:16:17.264Z,0.88
2023-03-14T09:18:45.998Z,1.27
2023-03-14T09:21:13.298Z,0.80
2023-03-14T09:23:41.476Z,0.90
2023-03-14T09:26:08.592Z,1.00
2023-03-14T09:28:35.665Z,0.90
2023-03-14T09:31:06.747Z,0.88
2023-03-14T09:33:33.917Z,1.23
2023-03-14T09:36:02.611Z,0.80
2023-03-14T09:38:29.646Z,0.82
2023-03-14T09:40:59.163Z,0.70
2023-03-14T09:43:27.167Z,0.80
2023-03-14T09:45:54.512Z,1.00
2023-03-14T09:48:22.943Z,0.67
2023-03-14T09:50:51.203Z,1.60
2023-03-14T09:53:21.089Z,0.70
2023-03-14T09:56:00.790Z,1.33
2023-03-14T09:58:27.732Z,1.35
2023-03-14T10:00:56.793Z,0.80
2023-03-14T10:06:12.030Z,1.45
2023-03-14T10:09:03.751Z,1.33
2023-03-14T10:11:32.796Z,1.10
2023-03-14T10:14:05.182Z,1.60
2023-03-14T10:16:36.063Z,1.27
2023-03-14T10:19:04.941Z,1.23
2023-03-14T10:21:41.277Z,0.95
2023-03-14T10:24:09.137Z,1.00
2023-03-14T10:26:40.909Z,1.20
2023-03-14T10:29:28.205Z,1.17
2023-03-14T10:31:56.609Z,1.65
2023-03-14T10:34:27.344Z,0.93
2023-03-14T10:36:55.554Z,1.02
2023-03-14T10:39:27.695Z,1.20
2023-03-14T10:41:59.973Z,1.33
2023-03-14T10:44:27.480Z,1.08
2023-03-14T10:46:57.618Z,1.10
2023-03-14T10:49:27.450Z,1.00
2023-03-14T10:51:54.417Z,1.20
2023-03-14T10:54:22.805Z,1.23
2023-03-14T10:56:58.735Z,1.35
2023-03-14T10:59:26.190Z,1.75
2023-03-14T11:01:56.968Z,1.00
2023-03-14T11:04:37.022Z,1.20
2023-03-14T11:07:05.930Z,0.93
2023-03-14T11:09:34.664Z,1.33
2023-03-14T11:12:11.508Z,1.20
2023-03-14T11:14:44.644Z,1.08
2023-03-14T11:17:17.257Z,1.30
2023-03-14T11:20:01.452Z,1.10
2023-03-14T11:22:34.526Z,1.20
2023-03-14T11:25:12.790Z,1.48
2023-03-14T11:27:45.216Z,1.33
2023-03-14T11:30:20.875Z,1.50
2023-03-14T11:32:50.824Z,1.00
2023-03-14T11:35:21.379Z,1.52
2023-03-14T11:37:52.927Z,0.90
2023-03-14T11:40:21.512Z,1.30
2023-03-14T11:42:55.004Z,1.47
2023-03-14T11:45:26.372Z,1.20
2023-03-14T11:47:57.012Z,1.50
2023-03-14T11:50:25.560Z,1.70
2023-03-14T11:52:55.528Z,1.40
2023-03-14T11:55:27.242Z,1.53
2023-03-14T11:57:58.108Z,1.42
2023-03-14T12:01:01.353Z,1.27
2023-03-14T12:07:06.621Z,1.50
2023-03-14T12:09:37.244Z,1.17
2023-03-14T12:12:06.988Z,1.60
2023-03-14T12:14:38.825Z,1.70
2023-03-14T12:17:07.513Z,1.35
2023-03-14T12:19:43.770Z,1.80
2023-03-14T12:22:23.428Z,1.70
2023-03-14T12:24:51.492Z,2.67
2023-03-14T12:27:33.773Z,4.30
2023-03-14T12:30:11.680Z,2.13
2023-03-14T12:32:40.986Z,2.35
2023-03-14T12:35:26.187Z,2.43
2023-03-14T12:37:55.679Z,1.70
2023-03-14T12:40:31.627Z,1.55
2023-03-14T12:43:00.200Z,1.48
2023-03-14T12:45:30.329Z,1.80
2023-03-14T12:48:02.656Z,1.77
2023-03-14T12:50:34.813Z,2.20
2023-03-14T12:53:16.627Z,1.48
2023-03-14T12:55:46.772Z,1.60
2023-03-14T12:58:16.323Z,2.00
2023-03-14T13:00:44.786Z,2.53
2023-03-14T13:03:18.819Z,2.53
2023-03-14T13:05:56.077Z,1.42
2023-03-14T13:08:39.444Z,2.03
2023-03-14T13:11:09.056Z,1.92
2023-03-14T13:13:36.884Z,4.97
2023-03-14T13:16:05.675Z,6.75
2023-03-14T13:18:36.113Z,2.67
2023-03-14T13:21:04.507Z,13.75
2023-03-14T13:23:32.495Z,23.65
2023-03-14T13:26:01.036Z,4.87
2023-03-14T13:28:28.771Z,2.95
2023-03-14T13:30:57.444Z,2.67
2023-03-14T13:33:26.080Z,1.80
2023-03-14T13:35:56.318Z,2.42
2023-03-14T13:38:24.564Z,2.13
2023-03-14T13:40:52.303Z,15.45
2023-03-14T13:43:20.526Z,3.67
2023-03-14T13:45:50.479Z,4.72
2023-03-14T13:48:17.825Z,1.48
2023-03-14T13:50:59.559Z,1.70
2023-03-14T13:53:28.002Z,1.23
2023-03-14T13:55:55.432Z,1.35
2023-03-14T13:58:32.520Z,1.27
2023-03-14T14:01:07.801Z,1.25
2023-03-14T14:03:38.047Z,0.97
2023-03-14T14:06:06.174Z,0.82
2023-03-14T14:08:37.437Z,1.23
2023-03-14T14:11:05.604Z,0.80
2023-03-14T14:13:35.370Z,0.82
2023-03-14T14:16:05.015Z,0.73
2023-03-14T14:18:32.406Z,1.67
2023-03-14T14:20:59.803Z,1.10
2023-03-14T14:23:29.903Z,1.50
2023-03-14T14:25:59.127Z,0.95
2023-03-14T14:28:28.903Z,1.40
2023-03-14T14:31:02.944Z,1.30
2023-03-14T14:33:30.078Z,3.15
2023-03-14T14:35:58.176Z,1.63
2023-03-14T14:38:25.632Z,1.42
2023-03-14T14:40:54.153Z,1.20
2023-03-14T14:43:23.840Z,2.58
2023-03-14T14:45:51.580Z,1.40
2023-03-14T14:48:20.317Z,1.63
2023-03-14T14:50:51.746Z,1.17
2023-03-14T14:53:25.475Z,2.17
2023-03-14T14:55:53.562Z,0.70
2023-03-14T14:58:23.973Z,0.73
2023-03-14T15:00:54.431Z,0.57
2023-03-14T15:03:21.507Z,1.00
2023-03-14T15:05:48.673Z,0.77
2023-03-14T15:08:15.741Z,0.57
2023-03-14T15:10:42.903Z,0.80
2023-03-14T15:13:10.492Z,0.60
2023-03-14T15:15:38.936Z,1.80
2023-03-14T15:18:12.926Z,1.83
2023-03-14T15:20:39.962Z,1.70
2023-03-14T15:23:10.566Z,1.58
2023-03-14T15:25:54.055Z,1.10
2023-03-14T15:28:23.784Z,1.92
2023-03-14T15:30:51.796Z,1.60
2023-03-14T15:33:20.625Z,2.40
2023-03-14T15:35:48.420Z,1.00
2023-03-14T15:38:16.482Z,0.80
2023-03-14T15:40:44.082Z,0.90
2023-03-14T15:43:11.235Z,0.93
2023-03-14T15:45:38.250Z,1.08
2023-03-14T15:48:05.484Z,0.90
2023-03-14T15:50:34.789Z,1.00
2023-03-14T15:53:01.932Z,2.42
2023-03-14T15:55:28.852Z,1.40
2023-03-14T15:57:56.187Z,1.27
2023-03-14T16:00:25.635Z,0.90
2023-03-14T16:02:52.580Z,1.60
2023-03-14T16:05:20.740Z,1.88
2023-03-14T16:07:49.083Z,2.33
2023-03-14T16:10:17.408Z,3.00
2023-03-14T16:12:44.486Z,2.83
2023-03-14T16:15:11.631Z,2.45
2023-03-14T16:17:41.063Z,2.60
2023-03-14T16:20:09.525Z,3.80
2023-03-14T16:22:38.402Z,3.63
2023-03-14T16:25:08.023Z,2.88
2023-03-14T16:27:35.280Z,4.93
2023-03-14T16:30:02.621Z,6.28
2023-03-14T16:32:30.310Z,7.77
2023-03-14T16:34:57.619Z,10.70
2023-03-14T16:37:25.068Z,6.22
2023-03-14T16:40:11.131Z,6.15
2023-03-14T16:42:54.933Z,9.48
2023-03-14T16:45:28.922Z,8.47
2023-03-14T16:47:55.844Z,12.30
2023-03-14T16:50:22.971Z,6.50
2023-03-14T16:52:49.962Z,8.73
2023-03-14T16:55:17.069Z,5.40
2023-03-14T16:57:45.550Z,5.77
2023-03-14T17:00:13.840Z,6.43
2023-03-14T17:02:40.882Z,9.38
2023-03-14T17:05:08.149Z,5.97
2023-03-14T17:07:35.147Z,1.77
2023-03-14T17:10:02.182Z,1.30
2023-03-14T17:12:29.373Z,1.95
2023-03-14T17:14:59.587Z,2.10
2023-03-14T17:17:26.679Z,3.40
2023-03-14T17:19:54.126Z,3.58
2023-03-14T17:22:25.167Z,3.43
2023-03-14T17:24:54.340Z,3.47
2023-03-14T17:27:21.395Z,3.40
2023-03-14T17:29:49.070Z,3.40
2023-03-14T17:32:17.763Z,2.58
2023-03-14T17:34:45.246Z,2.90
2023-03-14T17:37:12.711Z,4.30
2023-03-14T17:39:40.508Z,5.10
2023-03-14T17:42:07.715Z,4.15
2023-03-14T17:44:35.065Z,5.07
2023-03-14T17:47:02.537Z,4.57
2023-03-14T17:49:31.026Z,5.15
2023-03-14T17:51:58.436Z,6.28
2023-03-14T17:54:26.290Z,7.80
2023-03-14T17:56:53.188Z,7.97
2023-03-14T17:59:20.760Z,19.73
2023-03-14T18:01:48.368Z,20.65
2023-03-14T18:04:17.596Z,20.42
2023-03-14T18:06:46.963Z,15.98
2023-03-14T18:09:13.956Z,16.95
2023-03-14T18:11:41.498Z,29.13
2023-03-14T18:14:09.297Z,35.90
2023-03-14T18:16:36.570Z,32.83
2023-03-14T18:19:03.657Z,29.65
2023-03-14T18:21:31.446Z,25.15
2023-03-14T18:24:00.199Z,17.40
2023-03-14T18:26:27.523Z,17.13
2023-03-14T18:28:54.948Z,21.95
2023-03-14T18:31:25.302Z,17.05
2023-03-14T18:33:55.337Z,11.35
2023-03-14T18:36:22.820Z,12.13
2023-03-14T18:38:56.739Z,11.35
2023-03-14T18:41:25.631Z,10.98
2023-03-14T18:43:53.836Z,13.32
2023-03-14T18:46:22.103Z,19.95
2023-03-14T18:48:56.524Z,27.80
2023-03-14T18:51:25.102Z,46.65
2023-03-14T18:53:56.503Z,35.05
2023-03-14T18:56:31.783Z,25.77
2023-03-14T18:58:59.250Z,24.35
2023-03-14T19:01:31.224Z,17.67
2023-03-14T19:03:58.996Z,16.83
2023-03-14T19:06:28.097Z,31.45
2023-03-14T19:08:55.455Z,20.88
2023-03-14T19:11:23.246Z,21.10
2023-03-14T19:13:52.824Z,14.93
2023-03-14T19:16:22.375Z,14.23
2023-03-14T19:18:50.125Z,15.13
2023-03-14T19:21:25.564Z,15.48
2023-03-14T19:23:52.852Z,12.55
2023-03-14T19:26:20.327Z,14.87
2023-03-14T19:28:47.502Z,13.20
2023-03-14T19:31:16.345Z,13.25
2023-03-14T19:33:43.592Z,13.45
2023-03-14T19:36:19.702Z,14.50
2023-03-14T19:38:50.633Z,16.70
2023-03-14T19:41:17.922Z,17.60
2023-03-14T19:43:45.211Z,17.80
2023-03-14T19:46:12.509Z,18.40
2023-03-14T19:48:41.272Z,18.23
2023-03-14T19:51:09.831Z,20.23
2023-03-14T19:53:37.587Z,19.55
2023-03-14T19:56:07.674Z,21.52
2023-03-14T19:58:36.115Z,20.38
2023-03-14T20:01:03.758Z,19.45
2023-03-14T20:03:31.586Z,18.77
2023-03-14T20:06:03.990Z,18.30
2023-03-14T20:08:31.421Z,18.77
2023-03-14T20:10:58.811Z,19.70
2023-03-14T20:13:27.745Z,17.63
2023-03-14T20:15:55.092Z,16.55
2023-03-14T20:18:25.416Z,16.48
2023-03-14T20:20:53.402Z,15.07
2023-03-14T20:23:22.116Z,13.70
2023-03-14T20:25:55.840Z,14.43
2023-03-14T20:28:23.178Z,14.50
2023-03-14T20:30:50.761Z,13.30
2023-03-14T20:33:20.191Z,14.70
2023-03-14T20:35:53.143Z,15.00
2023-03-14T20:38:20.165Z,15.25
2023-03-14T20:40:48.825Z,13.48
2023-03-14T20:43:17.262Z,12.65
2023-03-14T20:45:51.941Z,9.43
2023-03-14T20:48:19.268Z,8.20
2023-03-14T20:50:46.818Z,6.97
2023-03-14T20:53:14.309Z,6.30
2023-03-14T20:55:41.281Z,6.07
2023-03-14T20:58:12.944Z,5.72
2023-03-14T21:00:40.451Z,5.63
2023-03-14T21:03:07.663Z,6.15
2023-03-14T21:05:34.851Z,6.25
2023-03-14T21:08:02.226Z,5.57
2023-03-14T21:10:29.734Z,5.20
2023-03-14T21:12:56.906Z,5.03
2023-03-14T21:15:25.468Z,6.10
2023-03-14T21:17:53.781Z,5.85
2023-03-14T21:20:26.017Z,10.45
2023-03-14T21:22:53.249Z,13.88
2023-03-14T21:25:20.362Z,10.70
2023-03-14T21:27:47.747Z,10.73
2023-03-14T21:30:14.955Z,9.90
2023-03-14T21:32:44.154Z,8.57
2023-03-14T21:35:11.911Z,8.32
2023-03-14T21:37:39.228Z,4.97
2023-03-14T21:40:11.236Z,4.75
2023-03-14T21:42:40.653Z,4.65
2023-03-14T21:45:08.445Z,6.50
2023-03-14T21:47:35.501Z,5.00
2023-03-14T21:50:08.629Z,3.13
2023-03-14T21:52:37.170Z,2.45
2023-03-14T21:55:04.347Z,5.22
2023-03-14T21:57:31.647Z,5.47
2023-03-14T22:00:02.197Z,2.97
2023-03-14T22:02:29.438Z,2.90
2023-03-14T22:04:56.339Z,2.00
2023-03-14T22:07:24.657Z,2.35
2023-03-14T22:09:53.254Z,1.63
2023-03-14T22:12:20.974Z,1.90
2023-03-14T22:14:48.132Z,2.00
2023-03-14T22:17:15.148Z,1.65
2023-03-14T22:19:43.445Z,1.23
2023-03-14T22:22:10.576Z,1.13
2023-03-14T22:24:38.835Z,0.90
2023-03-14T22:27:05.962Z,0.80
2023-03-14T22:29:34.456Z,0.50
2023-03-14T22:32:01.628Z,0.50
2023-03-14T22:34:31.741Z,0.50
2023-03-14T22:36:58.782Z,0.60
2023-03-14T22:39:27.208Z,0.50
2023-03-14T22:41:55.805Z,0.50
2023-03-14T22:44:22.793Z,0.40
2023-03-14T22:46:49.823Z,0.40
2023-03-14T22:49:16.923Z,0.50
2023-03-14T22:51:44.215Z,0.50
2023-03-14T22:54:11.154Z,0.50
2023-03-14T22:56:38.031Z,0.70
2023-03-14T22:59:06.621Z,0.70
2023-03-14T23:01:33.515Z,1.30
2023-03-14T23:04:00.935Z,1.27
2023-03-14T23:06:27.799Z,1.70
2023-03-14T23:08:54.720Z,1.92
2023-03-14T23:11:21.908Z,1.90
2023-03-14T23:13:48.849Z,1.85
2023-03-14T23:16:17.337Z,1.70
2023-03-14T23:18:44.995Z,1.80
2023-03-14T23:21:12.785Z,1.25
2023-03-14T23:23:40.104Z,0.75
2023-03-14T23:26:08.623Z,1.20
2023-03-14T23:28:35.635Z,1.00
2023-03-14T23:31:06.339Z,0.70
2023-03-14T23:33:35.776Z,0.60
2023-03-14T23:36:04.247Z,0.40
2023-03-14T23:38:31.836Z,0.30
2023-03-14T23:40:59.505Z,0.40
2023-03-14T23:43:26.533Z,0.50
2023-03-14T23:45:54.541Z,0.73
2023-03-14T23:48:22.311Z,0.30
2023-03-14T23:50:53.420Z,0.40
2023-03-14T23:53:20.405Z,0.40
2023-03-14T23:55:47.355Z,0.40
2023-03-14T23:58:14.362Z,0.40
